sensor_id;sensor_type;location;lat;lon;timestamp;pressure;altitude;pressure_sealevel;temperature;humidity
40692;BME280;26377;53.344;14.886;2022-12-07T00:01:39;100927.87;;;2.63;76.37
40692;BME280;26377;53.344;14.886;2022-12-07T00:04:10;100916.53;;;2.61;76.36
40692;BME280;26377;53.344;14.886;2022-12-07T00:06:39;100918.73;;;2.60;76.44
40692;BME280;26377;53.344;14.886;2022-12-07T00:09:13;100921.34;;;2.62;76.48
40692;BME280;26377;53.344;14.886;2022-12-07T00:11:43;100911.73;;;2.61;76.53
40692;BME280;26377;53.344;14.886;2022-12-07T00:14:14;100916.53;;;2.61;76.56
40692;BME280;26377;53.344;14.886;2022-12-07T00:16:42;100909.06;;;2.64;76.64
40692;BME280;26377;53.344;14.886;2022-12-07T00:19:11;100909.02;;;2.67;76.68
40692;BME280;26377;53.344;14.886;2022-12-07T00:21:40;100902.40;;;2.70;76.71
40692;BME280;26377;53.344;14.886;2022-12-07T00:24:10;100897.53;;;2.74;76.73
40692;BME280;26377;53.344;14.886;2022-12-07T00:26:39;100900.98;;;2.77;76.79
40692;BME280;26377;53.344;14.886;2022-12-07T00:29:17;100902.63;;;2.81;76.78
40692;BME280;26377;53.344;14.886;2022-12-07T00:31:46;100895.59;;;2.85;76.83
40692;BME280;26377;53.344;14.886;2022-12-07T00:34:16;100891.16;;;2.88;76.88
40692;BME280;26377;53.344;14.886;2022-12-07T00:36:44;100889.33;;;2.92;76.88
40692;BME280;26377;53.344;14.886;2022-12-07T00:39:13;100891.44;;;2.95;76.92
40692;BME280;26377;53.344;14.886;2022-12-07T00:41:40;100893.58;;;2.99;76.92
40692;BME280;26377;53.344;14.886;2022-12-07T00:44:07;100890.03;;;3.01;76.95
40692;BME280;26377;53.344;14.886;2022-12-07T00:46:35;100884.27;;;3.05;76.94
40692;BME280;26377;53.344;14.886;2022-12-07T00:49:02;100886.38;;;3.08;76.97
40692;BME280;26377;53.344;14.886;2022-12-07T00:51:30;100884.59;;;3.12;76.96
40692;BME280;26377;53.344;14.886;2022-12-07T00:53:58;100874.48;;;3.14;76.98
40692;BME280;26377;53.344;14.886;2022-12-07T00:56:27;100869.19;;;3.16;76.96
40692;BME280;26377;53.344;14.886;2022-12-07T00:58:59;100873.97;;;3.18;76.95
40692;BME280;26377;53.344;14.886;2022-12-07T01:01:30;100869.57;;;3.18;76.91
40692;BME280;26377;53.344;14.886;2022-12-07T01:03:59;100867.80;;;3.20;76.98
40692;BME280;26377;53.344;14.886;2022-12-07T01:06:30;100868.18;;;3.23;77.04
40692;BME280;26377;53.344;14.886;2022-12-07T01:08:59;100871.16;;;3.27;77.05
40692;BME280;26377;53.344;14.886;2022-12-07T01:14:18;100868.81;;;3.34;77.04
40692;BME280;26377;53.344;14.886;2022-12-07T01:16:45;100868.81;;;3.34;77.05
40692;BME280;26377;53.344;14.886;2022-12-07T01:19:12;100872.25;;;3.37;77.05
40692;BME280;26377;53.344;14.886;2022-12-07T01:21:39;100870.88;;;3.39;77.03
40692;BME280;26377;53.344;14.886;2022-12-07T01:24:09;100859.93;;;3.41;77.06
40692;BME280;26377;53.344;14.886;2022-12-07T01:26:37;100863.38;;;3.43;77.06
40692;BME280;26377;53.344;14.886;2022-12-07T01:29:05;100861.13;;;3.45;77.03
40692;BME280;26377;53.344;14.886;2022-12-07T01:31:33;100861.98;;;3.47;77.06
40692;BME280;26377;53.344;14.886;2022-12-07T01:34:01;100854.92;;;3.49;77.07
40692;BME280;26377;53.344;14.886;2022-12-07T01:36:31;100852.71;;;3.50;77.05
40692;BME280;26377;53.344;14.886;2022-12-07T01:39:04;100849.22;;;3.51;77.02
40692;BME280;26377;53.344;14.886;2022-12-07T01:41:33;100848.31;;;3.52;77.04
40692;BME280;26377;53.344;14.886;2022-12-07T01:46:56;100851.84;;;3.51;77.01
40692;BME280;26377;53.344;14.886;2022-12-07T01:49:44;100851.78;;;3.53;77.06
40692;BME280;26377;53.344;14.886;2022-12-07T01:52:31;100848.22;;;3.55;77.07
40692;BME280;26377;53.344;14.886;2022-12-07T01:55:00;100848.63;;;3.58;77.15
40692;BME280;26377;53.344;14.886;2022-12-07T01:57:31;100842.02;;;3.59;77.08
40692;BME280;26377;53.344;14.886;2022-12-07T02:00:00;100836.30;;;3.61;77.13
40692;BME280;26377;53.344;14.886;2022-12-07T02:02:34;100837.15;;;3.62;77.07
40692;BME280;26377;53.344;14.886;2022-12-07T02:05:05;100837.09;;;3.65;77.07
40692;BME280;26377;53.344;14.886;2022-12-07T02:07:35;100835.34;;;3.65;77.07
40692;BME280;26377;53.344;14.886;2022-12-07T02:15:11;100823.80;;;3.72;77.05
40692;BME280;26377;53.344;14.886;2022-12-07T02:17:55;100825.13;;;3.71;76.99
40692;BME280;26377;53.344;14.886;2022-12-07T02:20:40;100821.17;;;3.72;77.03
40692;BME280;26377;53.344;14.886;2022-12-07T02:29:10;100807.08;;;3.76;76.95
40692;BME280;26377;53.344;14.886;2022-12-07T02:32:06;100807.52;;;3.76;76.92
40692;BME280;26377;53.344;14.886;2022-12-07T02:34:49;100804.46;;;3.76;76.94
40692;BME280;26377;53.344;14.886;2022-12-07T02:37:25;100802.27;;;3.76;76.96
40692;BME280;26377;53.344;14.886;2022-12-07T02:42:51;100795.25;;;3.78;76.93
40692;BME280;26377;53.344;14.886;2022-12-07T02:45:22;100796.96;;;3.79;76.96
40692;BME280;26377;53.344;14.886;2022-12-07T02:47:55;100792.97;;;3.82;76.96
40692;BME280;26377;53.344;14.886;2022-12-07T02:50:26;100796.00;;;3.83;76.95
40692;BME280;26377;53.344;14.886;2022-12-07T02:52:55;100798.59;;;3.84;76.91
40692;BME280;26377;53.344;14.886;2022-12-07T02:55:27;100794.18;;;3.85;76.95
40692;BME280;26377;53.344;14.886;2022-12-07T03:01:16;100787.59;;;3.86;76.85
40692;BME280;26377;53.344;14.886;2022-12-07T03:03:58;100792.47;;;3.84;76.80
40692;BME280;26377;53.344;14.886;2022-12-07T03:06:28;100785.50;;;3.83;76.78
40692;BME280;26377;53.344;14.886;2022-12-07T03:09:26;100787.25;;;3.82;76.75
40692;BME280;26377;53.344;14.886;2022-12-07T03:11:58;100785.50;;;3.83;76.80
40692;BME280;26377;53.344;14.886;2022-12-07T03:14:34;100780.25;;;3.83;76.79
40692;BME280;26377;53.344;14.886;2022-12-07T03:17:13;100774.12;;;3.82;76.75
40692;BME280;26377;53.344;14.886;2022-12-07T03:19:44;100771.94;;;3.83;76.79
40692;BME280;26377;53.344;14.886;2022-12-07T03:22:14;100760.57;;;3.83;76.71
40692;BME280;26377;53.344;14.886;2022-12-07T03:24:46;100757.07;;;3.82;76.67
40692;BME280;26377;53.344;14.886;2022-12-07T03:27:24;100755.02;;;3.77;76.57
40692;BME280;26377;53.344;14.886;2022-12-07T03:29:57;100749.77;;;3.77;76.66
40692;BME280;26377;53.344;14.886;2022-12-07T03:32:33;100748.95;;;3.75;76.57
40692;BME280;26377;53.344;14.886;2022-12-07T03:35:31;100749.86;;;3.74;76.53
40692;BME280;26377;53.344;14.886;2022-12-07T03:38:31;100745.55;;;3.72;76.49
40692;BME280;26377;53.344;14.886;2022-12-07T03:41:23;100740.81;;;3.68;76.44
40692;BME280;26377;53.344;14.886;2022-12-07T03:43:55;100731.72;;;3.65;76.46
40692;BME280;26377;53.344;14.886;2022-12-07T03:52:42;100729.32;;;3.56;76.25
40692;BME280;26377;53.344;14.886;2022-12-07T03:57:53;100727.41;;;3.44;76.09
40692;BME280;26377;53.344;14.886;2022-12-07T04:00:22;100718.86;;;3.37;76.10
40692;BME280;26377;53.344;14.886;2022-12-07T04:02:52;100718.52;;;3.33;76.14
40692;BME280;26377;53.344;14.886;2022-12-07T04:05:19;100720.82;;;3.28;76.22
40692;BME280;26377;53.344;14.886;2022-12-07T04:07:48;100708.61;;;3.27;76.21
40692;BME280;26377;53.344;14.886;2022-12-07T04:10:15;100718.70;;;3.26;76.14
40692;BME280;26377;53.344;14.886;2022-12-07T04:12:43;100713.48;;;3.24;76.15
40692;BME280;26377;53.344;14.886;2022-12-07T04:15:10;100705.65;;;3.23;76.12
40692;BME280;26377;53.344;14.886;2022-12-07T04:17:38;100704.37;;;3.21;76.11
40692;BME280;26377;53.344;14.886;2022-12-07T04:20:06;100703.55;;;3.19;76.06
40692;BME280;26377;53.344;14.886;2022-12-07T04:22:34;100704.02;;;3.17;76.05
40692;BME280;26377;53.344;14.886;2022-12-07T04:25:02;100701.87;;;3.17;76.11
40692;BME280;26377;53.344;14.886;2022-12-07T04:27:30;100695.75;;;3.16;76.19
40692;BME280;26377;53.344;14.886;2022-12-07T04:29:57;100699.16;;;3.20;76.20
40692;BME280;26377;53.344;14.886;2022-12-07T04:32:25;100696.91;;;3.22;76.23
40692;BME280;26377;53.344;14.886;2022-12-07T04:34:52;100694.75;;;3.22;76.17
40692;BME280;26377;53.344;14.886;2022-12-07T04:37:20;100691.70;;;3.21;76.14
40692;BME280;26377;53.344;14.886;2022-12-07T04:39:48;100695.63;;;3.21;76.10
40692;BME280;26377;53.344;14.886;2022-12-07T04:42:15;100689.52;;;3.22;76.16
40692;BME280;26377;53.344;14.886;2022-12-07T04:44:42;100683.39;;;3.21;76.08
40692;BME280;26377;53.344;14.886;2022-12-07T04:47:09;100679.43;;;3.23;76.17
40692;BME280;26377;53.344;14.886;2022-12-07T04:49:36;100672.81;;;3.26;76.22
40692;BME280;26377;53.344;14.886;2022-12-07T04:52:04;100674.94;;;3.28;76.23
40692;BME280;26377;53.344;14.886;2022-12-07T04:54:32;100671.88;;;3.28;76.20
40692;BME280;26377;53.344;14.886;2022-12-07T04:56:59;100664.86;;;3.29;76.20
40692;BME280;26377;53.344;14.886;2022-12-07T04:59:26;100667.45;;;3.30;76.14
40692;BME280;26377;53.344;14.886;2022-12-07T05:01:55;100663.52;;;3.30;76.17
40692;BME280;26377;53.344;14.886;2022-12-07T05:04:23;100663.08;;;3.31;76.12
40692;BME280;26377;53.344;14.886;2022-12-07T05:06:55;100659.61;;;3.29;76.08
40692;BME280;26377;53.344;14.886;2022-12-07T05:09:23;100661.83;;;3.28;76.04
40692;BME280;26377;53.344;14.886;2022-12-07T05:11:50;100657.49;;;3.27;76.06
40692;BME280;26377;53.344;14.886;2022-12-07T05:14:20;100655.72;;;3.27;76.13
40692;BME280;26377;53.344;14.886;2022-12-07T05:16:49;100654.41;;;3.27;76.12
40692;BME280;26377;53.344;14.886;2022-12-07T05:19:18;100650.03;;;3.28;76.13
40692;BME280;26377;53.344;14.886;2022-12-07T05:21:47;100650.91;;;3.28;76.12
40692;BME280;26377;53.344;14.886;2022-12-07T05:24:16;100637.80;;;3.28;76.05
40692;BME280;26377;53.344;14.886;2022-12-07T05:26:44;100640.42;;;3.28;76.08
40692;BME280;26377;53.344;14.886;2022-12-07T05:29:15;100645.70;;;3.27;76.01
40692;BME280;26377;53.344;14.886;2022-12-07T05:31:43;100638.30;;;3.25;75.99
40692;BME280;26377;53.344;14.886;2022-12-07T05:34:12;100633.52;;;3.24;76.02
40692;BME280;26377;53.344;14.886;2022-12-07T05:36:39;100629.56;;;3.26;76.05
40692;BME280;26377;53.344;14.886;2022-12-07T05:39:07;100619.95;;;3.25;76.07
40692;BME280;26377;53.344;14.886;2022-12-07T05:41:36;100625.66;;;3.24;75.99
40692;BME280;26377;53.344;14.886;2022-12-07T05:44:22;100627.41;;;3.24;76.00
40692;BME280;26377;53.344;14.886;2022-12-07T05:46:50;100620.89;;;3.22;76.01
40692;BME280;26377;53.344;14.886;2022-12-07T05:49:17;100620.45;;;3.23;76.00
40692;BME280;26377;53.344;14.886;2022-12-07T05:51:45;100613.92;;;3.21;76.00
40692;BME280;26377;53.344;14.886;2022-12-07T05:54:12;100616.55;;;3.21;76.00
40692;BME280;26377;53.344;14.886;2022-12-07T05:56:40;100620.02;;;3.23;76.06
40692;BME280;26377;53.344;14.886;2022-12-07T05:59:08;100616.95;;;3.22;75.99
40692;BME280;26377;53.344;14.886;2022-12-07T06:01:52;100610.40;;;3.22;75.99
40692;BME280;26377;53.344;14.886;2022-12-07T06:04:26;100616.98;;;3.21;75.91
40692;BME280;26377;53.344;14.886;2022-12-07T06:06:58;100607.41;;;3.20;75.94
40692;BME280;26377;53.344;14.886;2022-12-07T06:09:27;100608.81;;;3.17;75.89
40692;BME280;26377;53.344;14.886;2022-12-07T06:11:55;100611.00;;;3.16;75.89
40692;BME280;26377;53.344;14.886;2022-12-07T06:14:42;100603.63;;;3.14;75.83
40692;BME280;26377;53.344;14.886;2022-12-07T06:17:10;100602.36;;;3.12;75.81
40692;BME280;26377;53.344;14.886;2022-12-07T06:19:41;100604.58;;;3.11;75.77
40692;BME280;26377;53.344;14.886;2022-12-07T06:22:09;100598.55;;;3.08;75.75
40692;BME280;26377;53.344;14.886;2022-12-07T06:24:38;100594.62;;;3.08;75.76
40692;BME280;26377;53.344;14.886;2022-12-07T06:27:07;100587.23;;;3.06;75.77
40692;BME280;26377;53.344;14.886;2022-12-07T06:29:34;100589.01;;;3.05;75.73
40692;BME280;26377;53.344;14.886;2022-12-07T06:32:03;100583.80;;;3.04;75.75
40692;BME280;26377;53.344;14.886;2022-12-07T06:34:31;100579.46;;;3.03;75.77
40692;BME280;26377;53.344;14.886;2022-12-07T06:36:58;100578.16;;;3.03;75.78
40692;BME280;26377;53.344;14.886;2022-12-07T06:39:27;100575.53;;;3.03;75.81
40692;BME280;26377;53.344;14.886;2022-12-07T06:41:56;100568.14;;;3.01;75.80
40692;BME280;26377;53.344;14.886;2022-12-07T06:44:24;100568.14;;;3.01;75.82
40692;BME280;26377;53.344;14.886;2022-12-07T06:46:51;100570.76;;;3.01;75.81
40692;BME280;26377;53.344;14.886;2022-12-07T06:49:19;100569.92;;;3.00;75.78
40692;BME280;26377;53.344;14.886;2022-12-07T06:51:47;100564.67;;;3.00;75.81
40692;BME280;26377;53.344;14.886;2022-12-07T06:54:15;100563.39;;;2.99;75.75
40692;BME280;26377;53.344;14.886;2022-12-07T06:56:43;100563.86;;;2.97;75.79
40692;BME280;26377;53.344;14.886;2022-12-07T06:59:11;100560.44;;;2.95;75.76
40692;BME280;26377;53.344;14.886;2022-12-07T07:01:38;100563.09;;;2.93;75.69
40692;BME280;26377;53.344;14.886;2022-12-07T07:04:05;100564.42;;;2.92;75.74
40692;BME280;26377;53.344;14.886;2022-12-07T07:06:32;100558.38;;;2.90;75.73
40692;BME280;26377;53.344;14.886;2022-12-07T07:09:00;100558.38;;;2.90;75.78
40692;BME280;26377;53.344;14.886;2022-12-07T07:11:28;100555.79;;;2.88;75.78
40692;BME280;26377;53.344;14.886;2022-12-07T07:13:55;100549.67;;;2.88;75.75
40692;BME280;26377;53.344;14.886;2022-12-07T07:16:24;100549.27;;;2.87;75.79
40692;BME280;26377;53.344;14.886;2022-12-07T07:18:51;100548.84;;;2.87;75.75
40692;BME280;26377;53.344;14.886;2022-12-07T07:21:18;100543.62;;;2.86;75.75
40692;BME280;26377;53.344;14.886;2022-12-07T07:23:46;100539.33;;;2.83;75.75
40692;BME280;26377;53.344;14.886;2022-12-07T07:26:13;100538.86;;;2.84;75.77
40692;BME280;26377;53.344;14.886;2022-12-07T07:28:41;100531.91;;;2.83;75.79
40692;BME280;26377;53.344;14.886;2022-12-07T07:31:08;100537.64;;;2.81;75.73
40692;BME280;26377;53.344;14.886;2022-12-07T07:33:35;100531.56;;;2.79;75.74
40692;BME280;26377;53.344;14.886;2022-12-07T07:36:03;100535.92;;;2.80;75.76
40692;BME280;26377;53.344;14.886;2022-12-07T07:38:31;100535.92;;;2.80;75.80
40692;BME280;26377;53.344;14.886;2022-12-07T07:40:58;100532.44;;;2.79;75.80
40692;BME280;26377;53.344;14.886;2022-12-07T07:43:26;100540.29;;;2.79;75.83
40692;BME280;26377;53.344;14.886;2022-12-07T07:45:53;100540.73;;;2.79;75.83
40692;BME280;26377;53.344;14.886;2022-12-07T07:48:20;100539.86;;;2.80;75.87
40692;BME280;26377;53.344;14.886;2022-12-07T07:50:49;100535.42;;;2.82;75.91
40692;BME280;26377;53.344;14.886;2022-12-07T07:53:16;100537.64;;;2.81;75.93
40692;BME280;26377;53.344;14.886;2022-12-07T07:55:51;100539.39;;;2.80;75.91
40692;BME280;26377;53.344;14.886;2022-12-07T07:58:20;100533.24;;;2.81;75.95
40692;BME280;26377;53.344;14.886;2022-12-07T08:00:48;100534.55;;;2.81;75.96
40692;BME280;26377;53.344;14.886;2022-12-07T08:03:15;100529.28;;;2.83;75.98
40692;BME280;26377;53.344;14.886;2022-12-07T08:05:43;100522.30;;;2.83;76.04
40692;BME280;26377;53.344;14.886;2022-12-07T08:08:10;100519.61;;;2.86;76.10
40692;BME280;26377;53.344;14.886;2022-12-07T08:10:39;100521.73;;;2.88;76.10
40692;BME280;26377;53.344;14.886;2022-12-07T08:13:07;100516.93;;;2.88;76.04
40692;BME280;26377;53.344;14.886;2022-12-07T08:15:39;100517.36;;;2.89;76.07
40692;BME280;26377;53.344;14.886;2022-12-07T08:18:08;100517.30;;;2.90;76.13
40692;BME280;26377;53.344;14.886;2022-12-07T08:20:37;100526.03;;;2.91;76.14
40692;BME280;26377;53.344;14.886;2022-12-07T08:23:06;100522.48;;;2.93;76.20
40692;BME280;26377;53.344;14.886;2022-12-07T08:25:33;100526.34;;;2.96;76.19
40692;BME280;26377;53.344;14.886;2022-12-07T08:28:02;100521.03;;;2.98;76.21
40692;BME280;26377;53.344;14.886;2022-12-07T08:30:31;100516.63;;;3.00;76.20
40692;BME280;26377;53.344;14.886;2022-12-07T08:33:00;100514.92;;;2.99;76.19
40692;BME280;26377;53.344;14.886;2022-12-07T08:35:27;100515.33;;;3.00;76.21
40692;BME280;26377;53.344;14.886;2022-12-07T08:37:57;100517.95;;;3.00;76.19
40692;BME280;26377;53.344;14.886;2022-12-07T08:40:25;100512.27;;;3.00;76.17
40692;BME280;26377;53.344;14.886;2022-12-07T08:42:53;100513.11;;;3.01;76.16
40692;BME280;26377;53.344;14.886;2022-12-07T08:45:21;100524.46;;;3.01;76.21
40692;BME280;26377;53.344;14.886;2022-12-07T08:48:01;100518.72;;;3.03;76.27
40692;BME280;26377;53.344;14.886;2022-12-07T08:50:27;100514.32;;;3.05;76.26
40692;BME280;26377;53.344;14.886;2022-12-07T08:52:56;100511.26;;;3.04;76.21
40692;BME280;26377;53.344;14.886;2022-12-07T08:55:26;100516.47;;;3.06;76.25
40692;BME280;26377;53.344;14.886;2022-12-07T08:57:54;100519.93;;;3.08;76.25
40692;BME280;26377;53.344;14.886;2022-12-07T09:00:23;100520.73;;;3.10;76.29
40692;BME280;26377;53.344;14.886;2022-12-07T09:02:51;100513.72;;;3.12;76.30
40692;BME280;26377;53.344;14.886;2022-12-07T09:05:18;100511.53;;;3.11;76.27
40692;BME280;26377;53.344;14.886;2022-12-07T09:07:48;100514.59;;;3.11;76.25
40692;BME280;26377;53.344;14.886;2022-12-07T09:10:17;100511.09;;;3.12;76.29
40692;BME280;26377;53.344;14.886;2022-12-07T09:12:48;100508.47;;;3.12;76.30
40692;BME280;26377;53.344;14.886;2022-12-07T09:15:18;100508.54;;;3.09;76.31
40692;BME280;26377;53.344;14.886;2022-12-07T09:17:47;100500.72;;;3.07;76.21
40692;BME280;26377;53.344;14.886;2022-12-07T09:20:15;100494.23;;;3.04;76.24
40692;BME280;26377;53.344;14.886;2022-12-07T09:22:43;100493.79;;;3.05;76.34
40692;BME280;26377;53.344;14.886;2022-12-07T09:25:11;100502.16;;;3.03;76.29
40692;BME280;26377;53.344;14.886;2022-12-07T09:27:41;100503.47;;;3.03;76.41
40692;BME280;26377;53.344;14.886;2022-12-07T09:30:08;100500.75;;;3.06;76.50
40692;BME280;26377;53.344;14.886;2022-12-07T09:32:36;100494.97;;;3.09;76.45
40692;BME280;26377;53.344;14.886;2022-12-07T09:35:03;100491.98;;;3.07;76.44
40692;BME280;26377;53.344;14.886;2022-12-07T09:37:31;100493.72;;;3.08;76.43
40692;BME280;26377;53.344;14.886;2022-12-07T09:40:01;100495.44;;;3.09;76.40
40692;BME280;26377;53.344;14.886;2022-12-07T09:42:38;100489.69;;;3.11;76.51
40692;BME280;26377;53.344;14.886;2022-12-07T09:45:11;100487.91;;;3.13;76.54
40692;BME280;26377;53.344;14.886;2022-12-07T09:47:39;100489.95;;;3.18;76.54
40692;BME280;26377;53.344;14.886;2022-12-07T09:50:18;100496.03;;;3.18;76.51
40692;BME280;26377;53.344;14.886;2022-12-07T09:52:45;100498.59;;;3.21;76.51
40692;BME280;26377;53.344;14.886;2022-12-07T09:55:16;100494.63;;;3.23;76.51
40692;BME280;26377;53.344;14.886;2022-12-07T09:57:57;100495.06;;;3.22;76.56
40692;BME280;26377;53.344;14.886;2022-12-07T10:00:25;100496.27;;;3.27;76.66
40692;BME280;26377;53.344;14.886;2022-12-07T10:02:57;100486.19;;;3.28;76.53
40692;BME280;26377;53.344;14.886;2022-12-07T10:05:42;100491.39;;;3.29;76.51
40692;BME280;26377;53.344;14.886;2022-12-07T10:08:12;100489.10;;;3.33;76.64
40692;BME280;26377;53.344;14.886;2022-12-07T10:10:44;100492.09;;;3.36;76.60
40692;BME280;26377;53.344;14.886;2022-12-07T10:13:20;100492.86;;;3.39;76.58
40692;BME280;26377;53.344;14.886;2022-12-07T10:15:57;100498.10;;;3.39;76.56
40692;BME280;26377;53.344;14.886;2022-12-07T10:18:40;100508.55;;;3.41;76.61
40692;BME280;26377;53.344;14.886;2022-12-07T10:21:12;100495.91;;;3.39;76.46
40692;BME280;26377;53.344;14.886;2022-12-07T10:24:01;100497.80;;;3.34;76.18
40692;BME280;26377;53.344;14.886;2022-12-07T10:26:36;100496.63;;;3.29;76.33
40692;BME280;26377;53.344;14.886;2022-12-07T10:29:29;100495.36;;;3.28;76.47
40692;BME280;26377;53.344;14.886;2022-12-07T10:34:44;100490.41;;;3.33;76.53
40692;BME280;26377;53.344;14.886;2022-12-07T10:37:17;100485.17;;;3.33;76.52
40692;BME280;26377;53.344;14.886;2022-12-07T10:39:57;100492.59;;;3.32;76.44
40692;BME280;26377;53.344;14.886;2022-12-07T10:42:29;100496.53;;;3.32;76.44
40692;BME280;26377;53.344;14.886;2022-12-07T10:45:09;100506.55;;;3.34;76.48
40692;BME280;26377;53.344;14.886;2022-12-07T10:47:51;100500.56;;;3.29;76.26
40692;BME280;26377;53.344;14.886;2022-12-07T10:53:47;100500.67;;;3.25;76.36
40692;BME280;26377;53.344;14.886;2022-12-07T11:32:42;100491.47;;;3.42;76.51
40692;BME280;26377;53.344;14.886;2022-12-07T11:38:17;100475.42;;;3.53;76.66
40692;BME280;26377;53.344;14.886;2022-12-07T11:40:51;100480.91;;;3.60;76.64
40692;BME280;26377;53.344;14.886;2022-12-07T11:45:58;100476.91;;;3.63;76.41
40692;BME280;26377;53.344;14.886;2022-12-07T11:48:43;100469.08;;;3.61;76.36
40692;BME280;26377;53.344;14.886;2022-12-07T11:51:18;100465.94;;;3.63;76.45
40692;BME280;26377;53.344;14.886;2022-12-07T11:54:01;100460.63;;;3.66;76.42
40692;BME280;26377;53.344;14.886;2022-12-07T11:56:30;100463.61;;;3.69;76.29
40692;BME280;26377;53.344;14.886;2022-12-07T11:59:19;100458.36;;;3.69;76.28
40692;BME280;26377;53.344;14.886;2022-12-07T12:02:07;100458.76;;;3.70;76.26
40692;BME280;26377;53.344;14.886;2022-12-07T12:04:49;100468.34;;;3.71;76.19
40692;BME280;26377;53.344;14.886;2022-12-07T12:07:26;100467.54;;;3.69;76.21
40692;BME280;26377;53.344;14.886;2022-12-07T12:09:59;100471.48;;;3.69;76.16
40692;BME280;26377;53.344;14.886;2022-12-07T12:15:47;100467.22;;;3.65;76.04
40692;BME280;26377;53.344;14.886;2022-12-07T12:18:58;100469.84;;;3.65;76.09
40692;BME280;26377;53.344;14.886;2022-12-07T12:21:41;100462.77;;;3.67;76.22
40692;BME280;26377;53.344;14.886;2022-12-07T12:24:13;100464.88;;;3.70;76.22
40692;BME280;26377;53.344;14.886;2022-12-07T12:27:06;100462.14;;;3.73;76.23
40692;BME280;26377;53.344;14.886;2022-12-07T12:29:42;100471.25;;;3.76;76.25
40692;BME280;26377;53.344;14.886;2022-12-07T12:32:23;100461.92;;;3.81;76.32
40692;BME280;26377;53.344;14.886;2022-12-07T12:35:00;100466.33;;;3.80;76.23
40692;BME280;26377;53.344;14.886;2022-12-07T12:37:48;100461.98;;;3.79;76.13
40692;BME280;26377;53.344;14.886;2022-12-07T12:42:55;100466.63;;;3.70;75.89
40692;BME280;26377;53.344;14.886;2022-12-07T12:45:26;100462.88;;;3.64;75.87
40692;BME280;26377;53.344;14.886;2022-12-07T12:50:38;100471.15;;;3.65;76.00
40692;BME280;26377;53.344;14.886;2022-12-07T12:53:22;100472.86;;;3.66;76.04
40692;BME280;26377;53.344;14.886;2022-12-07T12:58:48;100467.58;;;3.67;75.95
40692;BME280;26377;53.344;14.886;2022-12-07T13:01:37;100465.86;;;3.66;75.87
40692;BME280;26377;53.344;14.886;2022-12-07T13:04:27;100467.30;;;3.62;75.80
40692;BME280;26377;53.344;14.886;2022-12-07T13:06:57;100457.34;;;3.58;75.78
40692;BME280;26377;53.344;14.886;2022-12-07T13:09:29;100458.58;;;3.61;75.84
40692;BME280;26377;53.344;14.886;2022-12-07T13:12:04;100458.55;;;3.63;75.80
40692;BME280;26377;53.344;14.886;2022-12-07T13:20:08;100453.33;;;3.76;75.73
40692;BME280;26377;53.344;14.886;2022-12-07T13:22:41;100456.63;;;3.82;75.84
40692;BME280;26377;53.344;14.886;2022-12-07T13:25:22;100449.36;;;3.92;75.85
40692;BME280;26377;53.344;14.886;2022-12-07T13:28:23;100451.03;;;3.94;75.62
40692;BME280;26377;53.344;14.886;2022-12-07T13:33:27;100447.45;;;3.82;75.15
40692;BME280;26377;53.344;14.886;2022-12-07T13:35:56;100448.98;;;3.75;75.08
40692;BME280;26377;53.344;14.886;2022-12-07T13:38:33;100448.27;;;3.70;75.03
40692;BME280;26377;53.344;14.886;2022-12-07T13:46:52;100455.67;;;3.56;74.89
40692;BME280;26377;53.344;14.886;2022-12-07T13:49:27;100449.30;;;3.50;74.84
40692;BME280;26377;53.344;14.886;2022-12-07T13:54:55;100450.14;;;3.36;74.70
40692;BME280;26377;53.344;14.886;2022-12-07T13:57:35;100444.64;;;3.29;74.63
40692;BME280;26377;53.344;14.886;2022-12-07T14:00:05;100453.95;;;3.24;74.65
40692;BME280;26377;53.344;14.886;2022-12-07T14:02:35;100453.13;;;3.22;74.69
40692;BME280;26377;53.344;14.886;2022-12-07T14:05:24;100452.28;;;3.22;74.61
40692;BME280;26377;53.344;14.886;2022-12-07T14:07:57;100457.59;;;3.19;74.53
40692;BME280;26377;53.344;14.886;2022-12-07T14:10:38;100467.78;;;3.13;74.52
40692;BME280;26377;53.344;14.886;2022-12-07T14:16:22;100472.45;;;3.02;74.40
40692;BME280;26377;53.344;14.886;2022-12-07T14:19:01;100478.70;;;2.97;74.38
40692;BME280;26377;53.344;14.886;2022-12-07T14:21:34;100467.59;;;2.89;74.31
40692;BME280;26377;53.344;14.886;2022-12-07T14:24:15;100468.97;;;2.86;74.37
40692;BME280;26377;53.344;14.886;2022-12-07T14:26:48;100469.06;;;2.81;74.30
40692;BME280;26377;53.344;14.886;2022-12-07T14:31:56;100477.59;;;2.73;74.29
40692;BME280;26377;53.344;14.886;2022-12-07T14:34:55;100482.11;;;2.67;74.18
40692;BME280;26377;53.344;14.886;2022-12-07T14:37:24;100478.25;;;2.64;74.33
40692;BME280;26377;53.344;14.886;2022-12-07T14:39:52;100481.40;;;2.60;74.24
40692;BME280;26377;53.344;14.886;2022-12-07T14:42:23;100476.22;;;2.57;74.26
40692;BME280;26377;53.344;14.886;2022-12-07T14:44:52;100475.45;;;2.54;74.23
40692;BME280;26377;53.344;14.886;2022-12-07T14:47:20;100486.85;;;2.51;74.11
40692;BME280;26377;53.344;14.886;2022-12-07T14:49:47;100483.02;;;2.47;74.12
40692;BME280;26377;53.344;14.886;2022-12-07T14:52:20;100479.62;;;2.43;74.04
40692;BME280;26377;53.344;14.886;2022-12-07T14:54:51;100473.64;;;2.38;74.04
40692;BME280;26377;53.344;14.886;2022-12-07T14:57:19;100478.13;;;2.33;73.99
40692;BME280;26377;53.344;14.886;2022-12-07T14:59:48;100479.55;;;2.29;73.99
40692;BME280;26377;53.344;14.886;2022-12-07T15:02:16;100480.95;;;2.24;73.97
40692;BME280;26377;53.344;14.886;2022-12-07T15:04:44;100474.52;;;2.20;74.00
40692;BME280;26377;53.344;14.886;2022-12-07T15:07:21;100481.13;;;2.17;74.01
40692;BME280;26377;53.344;14.886;2022-12-07T15:09:49;100480.25;;;2.16;74.08